sensor_id;sensor_type;location;lat;lon;timestamp;temperature;humidity
21590;DHT22;10957;50.968;6.828;2023-03-19T00:04:52;10.40;1.00
21590;DHT22;10957;50.968;6.828;2023-03-19T00:09:54;10.00;1.00
21590;DHT22;10957;50.968;6.828;2023-03-19T00:14:55;10.20;1.00
21590;DHT22;10957;50.968;6.828;2023-03-19T00:19:56;10.10;1.00
21590;DHT22;10957;50.968;6.828;2023-03-19T00:24:58;10.10;1.00
21590;DHT22;10957;50.968;6.828;2023-03-19T00:29:59;10.00;1.00
21590;DHT22;10957;50.968;6.828;2023-03-19T00:35:03;9.80;1.00
21590;DHT22;10957;50.968;6.828;2023-03-19T00:40:07;9.90;1.00
21590;DHT22;10957;50.968;6.828;2023-03-19T00:45:09;9.60;1.00
21590;DHT22;10957;50.968;6.828;2023-03-19T00:50:11;9.60;1.00
21590;DHT22;10957;50.968;6.828;2023-03-19T00:55:12;9.30;1.00
21590;DHT22;10957;50.968;6.828;2023-03-19T01:00:14;9.30;1.00
21590;DHT22;10957;50.968;6.828;2023-03-19T01:05:15;9.00;1.00
21590;DHT22;10957;50.968;6.828;2023-03-19T01:10:18;9.00;1.00
21590;DHT22;10957;50.968;6.828;2023-03-19T01:15:19;9.10;34.40
21590;DHT22;10957;50.968;6.828;2023-03-19T01:20:21;8.90;61.70
21590;DHT22;10957;50.968;6.828;2023-03-19T01:25:24;8.50;99.90
21590;DHT22;10957;50.968;6.828;2023-03-19T01:30:43;8.50;99.90
21590;DHT22;10957;50.968;6.828;2023-03-19T01:35:48;8.20;99.90
21590;DHT22;10957;50.968;6.828;2023-03-19T01:40:51;8.60;99.90
21590;DHT22;10957;50.968;6.828;2023-03-19T01:46:24;8.40;99.90
21590;DHT22;10957;50.968;6.828;2023-03-19T01:51:50;8.10;99.90
21590;DHT22;10957;50.968;6.828;2023-03-19T01:57:08;8.10;99.90
21590;DHT22;10957;50.968;6.828;2023-03-19T02:02:32;8.20;99.90
21590;DHT22;10957;50.968;6.828;2023-03-19T02:07:42;8.30;99.90
21590;DHT22;10957;50.968;6.828;2023-03-19T02:12:45;8.50;99.90
21590;DHT22;10957;50.968;6.828;2023-03-19T02:17:47;8.80;99.90
21590;DHT22;10957;50.968;6.828;2023-03-19T02:23:02;8.60;99.90
21590;DHT22;10957;50.968;6.828;2023-03-19T02:28:07;8.60;99.90
21590;DHT22;10957;50.968;6.828;2023-03-19T02:33:12;8.90;99.90
21590;DHT22;10957;50.968;6.828;2023-03-19T02:38:14;8.50;99.90
21590;DHT22;10957;50.968;6.828;2023-03-19T02:43:15;8.70;99.90
21590;DHT22;10957;50.968;6.828;2023-03-19T02:48:17;8.90;99.90
21590;DHT22;10957;50.968;6.828;2023-03-19T02:53:18;8.70;99.90
21590;DHT22;10957;50.968;6.828;2023-03-19T02:58:20;8.70;99.90
21590;DHT22;10957;50.968;6.828;2023-03-19T03:03:21;9.00;99.90
21590;DHT22;10957;50.968;6.828;2023-03-19T03:08:22;9.30;99.90
21590;DHT22;10957;50.968;6.828;2023-03-19T03:13:24;9.20;99.90
21590;DHT22;10957;50.968;6.828;2023-03-19T03:18:26;9.10;99.90
21590;DHT22;10957;50.968;6.828;2023-03-19T03:23:27;9.10;99.90
21590;DHT22;10957;50.968;6.828;2023-03-19T03:28:28;9.20;99.90
21590;DHT22;10957;50.968;6.828;2023-03-19T03:33:30;9.00;99.90
21590;DHT22;10957;50.968;6.828;2023-03-19T03:38:31;9.10;99.90
21590;DHT22;10957;50.968;6.828;2023-03-19T03:43:33;9.10;99.90
21590;DHT22;10957;50.968;6.828;2023-03-19T03:48:35;9.00;99.90
21590;DHT22;10957;50.968;6.828;2023-03-19T03:53:37;8.90;99.90
21590;DHT22;10957;50.968;6.828;2023-03-19T03:58:39;8.80;99.90
21590;DHT22;10957;50.968;6.828;2023-03-19T04:03:41;8.70;99.90
21590;DHT22;10957;50.968;6.828;2023-03-19T04:08:43;8.60;99.90
21590;DHT22;10957;50.968;6.828;2023-03-19T04:13:45;8.40;99.90
21590;DHT22;10957;50.968;6.828;2023-03-19T04:18:47;8.70;99.90
21590;DHT22;10957;50.968;6.828;2023-03-19T04:23:48;8.60;99.90
21590;DHT22;10957;50.968;6.828;2023-03-19T04:28:49;8.80;99.90
21590;DHT22;10957;50.968;6.828;2023-03-19T04:33:50;9.00;99.90
21590;DHT22;10957;50.968;6.828;2023-03-19T04:38:52;9.20;99.90
21590;DHT22;10957;50.968;6.828;2023-03-19T04:43:54;9.30;99.90
21590;DHT22;10957;50.968;6.828;2023-03-19T04:48:56;9.50;99.90
21590;DHT22;10957;50.968;6.828;2023-03-19T04:53:58;9.30;99.90
21590;DHT22;10957;50.968;6.828;2023-03-19T04:59:00;9.00;99.90
21590;DHT22;10957;50.968;6.828;2023-03-19T05:04:01;9.20;99.90
21590;DHT22;10957;50.968;6.828;2023-03-19T05:09:04;9.20;99.90
21590;DHT22;10957;50.968;6.828;2023-03-19T05:14:06;9.10;99.90
21590;DHT22;10957;50.968;6.828;2023-03-19T05:19:29;9.10;99.90
21590;DHT22;10957;50.968;6.828;2023-03-19T05:24:30;8.90;99.90
21590;DHT22;10957;50.968;6.828;2023-03-19T05:29:32;9.30;99.90
21590;DHT22;10957;50.968;6.828;2023-03-19T05:34:47;9.20;99.90
21590;DHT22;10957;50.968;6.828;2023-03-19T05:39:50;9.10;99.90
21590;DHT22;10957;50.968;6.828;2023-03-19T05:44:52;9.20;99.90
21590;DHT22;10957;50.968;6.828;2023-03-19T05:50:00;9.50;99.90
21590;DHT22;10957;50.968;6.828;2023-03-19T05:55:02;9.40;99.90
21590;DHT22;10957;50.968;6.828;2023-03-19T06:00:15;9.30;99.90
21590;DHT22;10957;50.968;6.828;2023-03-19T06:05:16;9.50;99.90
21590;DHT22;10957;50.968;6.828;2023-03-19T06:10:18;9.70;99.90
21590;DHT22;10957;50.968;6.828;2023-03-19T06:15:22;9.80;99.90
21590;DHT22;10957;50.968;6.828;2023-03-19T06:20:55;9.90;99.90
21590;DHT22;10957;50.968;6.828;2023-03-19T06:25:57;10.10;99.90
21590;DHT22;10957;50.968;6.828;2023-03-19T06:31:01;10.20;99.90
21590;DHT22;10957;50.968;6.828;2023-03-19T06:36:31;10.10;99.90
21590;DHT22;10957;50.968;6.828;2023-03-19T06:41:33;10.20;99.90
21590;DHT22;10957;50.968;6.828;2023-03-19T06:46:45;10.20;99.90
21590;DHT22;10957;50.968;6.828;2023-03-19T06:51:47;10.10;99.90
21590;DHT22;10957;50.968;6.828;2023-03-19T06:56:48;10.10;99.90
21590;DHT22;10957;50.968;6.828;2023-03-19T07:01:49;10.20;99.90
21590;DHT22;10957;50.968;6.828;2023-03-19T07:06:51;10.40;99.90
21590;DHT22;10957;50.968;6.828;2023-03-19T07:11:52;10.20;99.90
21590;DHT22;10957;50.968;6.828;2023-03-19T07:16:54;10.50;99.90
21590;DHT22;10957;50.968;6.828;2023-03-19T07:21:55;10.50;99.90
21590;DHT22;10957;50.968;6.828;2023-03-19T07:26:56;10.50;99.90
21590;DHT22;10957;50.968;6.828;2023-03-19T07:31:58;10.80;99.90
21590;DHT22;10957;50.968;6.828;2023-03-19T07:36:59;11.20;99.90
21590;DHT22;10957;50.968;6.828;2023-03-19T07:42:01;11.10;99.90
21590;DHT22;10957;50.968;6.828;2023-03-19T07:47:03;11.00;99.90
21590;DHT22;10957;50.968;6.828;2023-03-19T07:52:04;11.10;99.90
21590;DHT22;10957;50.968;6.828;2023-03-19T07:57:06;11.70;99.90
21590;DHT22;10957;50.968;6.828;2023-03-19T08:02:10;12.10;95.40
21590;DHT22;10957;50.968;6.828;2023-03-19T08:07:12;12.50;61.60
21590;DHT22;10957;50.968;6.828;2023-03-19T08:12:14;12.60;36.60
21590;DHT22;10957;50.968;6.828;2023-03-19T08:17:15;13.60;23.50
21590;DHT22;10957;50.968;6.828;2023-03-19T08:22:17;13.40;1.00
21590;DHT22;10957;50.968;6.828;2023-03-19T08:27:18;12.70;1.00
21590;DHT22;10957;50.968;6.828;2023-03-19T08:32:19;12.80;1.00
21590;DHT22;10957;50.968;6.828;2023-03-19T08:37:21;12.80;1.00
21590;DHT22;10957;50.968;6.828;2023-03-19T08:42:22;12.90;1.00
21590;DHT22;10957;50.968;6.828;2023-03-19T08:47:23;13.20;1.00
21590;DHT22;10957;50.968;6.828;2023-03-19T08:52:25;13.20;1.00
21590;DHT22;10957;50.968;6.828;2023-03-19T08:57:27;13.10;1.00
21590;DHT22;10957;50.968;6.828;2023-03-19T09:02:30;13.30;1.00
21590;DHT22;10957;50.968;6.828;2023-03-19T09:07:31;13.40;1.00
21590;DHT22;10957;50.968;6.828;2023-03-19T09:12:32;13.90;1.00
21590;DHT22;10957;50.968;6.828;2023-03-19T09:17:34;13.90;1.00
21590;DHT22;10957;50.968;6.828;2023-03-19T09:22:35;14.10;1.00
21590;DHT22;10957;50.968;6.828;2023-03-19T09:27:37;14.00;1.00
21590;DHT22;10957;50.968;6.828;2023-03-19T09:32:38;14.30;1.00
21590;DHT22;10957;50.968;6.828;2023-03-19T09:37:39;15.00;1.00
21590;DHT22;10957;50.968;6.828;2023-03-19T09:42:57;14.80;1.00
21590;DHT22;10957;50.968;6.828;2023-03-19T09:48:09;14.10;1.00
21590;DHT22;10957;50.968;6.828;2023-03-19T09:58:47;14.60;1.00
21590;DHT22;10957;50.968;6.828;2023-03-19T10:03:57;14.90;1.00
21590;DHT22;10957;50.968;6.828;2023-03-19T10:09:26;14.80;1.00
21590;DHT22;10957;50.968;6.828;2023-03-19T10:19:52;15.10;1.00
21590;DHT22;10957;50.968;6.828;2023-03-19T10:24:56;15.00;1.00
21590;DHT22;10957;50.968;6.828;2023-03-19T10:29:58;14.60;1.00
21590;DHT22;10957;50.968;6.828;2023-03-19T10:35:06;14.60;1.00
21590;DHT22;10957;50.968;6.828;2023-03-19T10:40:50;14.90;1.00
21590;DHT22;10957;50.968;6.828;2023-03-19T10:45:56;15.10;1.00
21590;DHT22;10957;50.968;6.828;2023-03-19T10:51:00;15.10;1.00
21590;DHT22;10957;50.968;6.828;2023-03-19T10:56:14;15.10;1.00
21590;DHT22;10957;50.968;6.828;2023-03-19T11:01:17;15.00;1.00
21590;DHT22;10957;50.968;6.828;2023-03-19T11:06:27;14.90;1.00
21590;DHT22;10957;50.968;6.828;2023-03-19T11:16:56;15.40;1.00
21590;DHT22;10957;50.968;6.828;2023-03-19T11:27:01;15.70;1.00
21590;DHT22;10957;50.968;6.828;2023-03-19T11:43:03;14.40;1.00
21590;DHT22;10957;50.968;6.828;2023-03-19T12:04:47;15.00;1.00
21590;DHT22;10957;50.968;6.828;2023-03-19T12:09:58;15.10;1.00
21590;DHT22;10957;50.968;6.828;2023-03-19T12:15:18;15.80;1.00
21590;DHT22;10957;50.968;6.828;2023-03-19T12:20:29;16.50;1.00
21590;DHT22;10957;50.968;6.828;2023-03-19T12:35:59;15.80;1.00
21590;DHT22;10957;50.968;6.828;2023-03-19T12:41:11;15.10;1.00
21590;DHT22;10957;50.968;6.828;2023-03-19T12:46:34;15.40;1.00
21590;DHT22;10957;50.968;6.828;2023-03-19T12:51:39;15.50;1.00
21590;DHT22;10957;50.968;6.828;2023-03-19T13:02:27;16.50;1.00
21590;DHT22;10957;50.968;6.828;2023-03-19T13:07:39;16.20;1.00
21590;DHT22;10957;50.968;6.828;2023-03-19T13:12:47;16.40;1.00
21590;DHT22;10957;50.968;6.828;2023-03-19T13:18:04;16.10;1.00
21590;DHT22;10957;50.968;6.828;2023-03-19T13:23:13;16.10;1.00
21590;DHT22;10957;50.968;6.828;2023-03-19T13:28:30;16.40;1.00
21590;DHT22;10957;50.968;6.828;2023-03-19T13:33:36;16.00;1.00
21590;DHT22;10957;50.968;6.828;2023-03-19T13:38:47;15.50;1.00
21590;DHT22;10957;50.968;6.828;2023-03-19T13:43:52;15.30;1.00
21590;DHT22;10957;50.968;6.828;2023-03-19T13:49:06;15.00;1.00
21590;DHT22;10957;50.968;6.828;2023-03-19T13:59:24;15.10;1.00
21590;DHT22;10957;50.968;6.828;2023-03-19T14:04:30;15.00;1.00
21590;DHT22;10957;50.968;6.828;2023-03-19T14:09:45;15.00;1.00
21590;DHT22;10957;50.968;6.828;2023-03-19T14:25:21;14.80;1.00
21590;DHT22;10957;50.968;6.828;2023-03-19T14:35:28;15.60;1.00
21590;DHT22;10957;50.968;6.828;2023-03-19T14:40:41;15.60;1.00
21590;DHT22;10957;50.968;6.828;2023-03-19T14:46:08;15.20;1.00
21590;DHT22;10957;50.968;6.828;2023-03-19T14:56:39;15.40;1.00
21590;DHT22;10957;50.968;6.828;2023-03-19T15:01:48;14.90;1.00
21590;DHT22;10957;50.968;6.828;2023-03-19T15:07:00;14.70;1.00
21590;DHT22;10957;50.968;6.828;2023-03-19T15:17:24;14.40;1.00
21590;DHT22;10957;50.968;6.828;2023-03-19T15:22:32;14.10;1.00
21590;DHT22;10957;50.968;6.828;2023-03-19T15:27:34;14.20;1.00
21590;DHT22;10957;50.968;6.828;2023-03-19T15:32:38;13.70;1.00
21590;DHT22;10957;50.968;6.828;2023-03-19T15:37:42;13.10;1.00
21590;DHT22;10957;50.968;6.828;2023-03-19T15:42:46;13.60;54.50
21590;DHT22;10957;50.968;6.828;2023-03-19T15:48:01;12.80;99.90
21590;DHT22;10957;50.968;6.828;2023-03-19T15:53:08;12.60;99.90
21590;DHT22;10957;50.968;6.828;2023-03-19T15:58:15;12.10;99.90
21590;DHT22;10957;50.968;6.828;2023-03-19T16:03:19;12.20;99.90
21590;DHT22;10957;50.968;6.828;2023-03-19T16:08:25;12.10;99.90
21590;DHT22;10957;50.968;6.828;2023-03-19T16:13:36;11.80;1.00
21590;DHT22;10957;50.968;6.828;2023-03-19T16:18:46;12.10;1.00
21590;DHT22;10957;50.968;6.828;2023-03-19T16:24:00;12.20;1.00
21590;DHT22;10957;50.968;6.828;2023-03-19T16:29:06;12.40;1.00
21590;DHT22;10957;50.968;6.828;2023-03-19T16:34:41;12.30;1.00
21590;DHT22;10957;50.968;6.828;2023-03-19T16:39:56;12.60;1.00
21590;DHT22;10957;50.968;6.828;2023-03-19T16:45:24;12.60;1.00
21590;DHT22;10957;50.968;6.828;2023-03-19T16:50:35;12.60;1.00
21590;DHT22;10957;50.968;6.828;2023-03-19T16:55:37;12.70;1.00
21590;DHT22;10957;50.968;6.828;2023-03-19T17:00:39;12.80;1.00
21590;DHT22;10957;50.968;6.828;2023-03-19T17:05:44;12.50;1.00
21590;DHT22;10957;50.968;6.828;2023-03-19T17:10:48;12.30;1.00
21590;DHT22;10957;50.968;6.828;2023-03-19T17:15:50;12.00;1.00
21590;DHT22;10957;50.968;6.828;2023-03-19T17:21:07;12.10;1.00
21590;DHT22;10957;50.968;6.828;2023-03-19T17:26:22;11.70;1.00
21590;DHT22;10957;50.968;6.828;2023-03-19T17:36:29;11.40;1.00
21590;DHT22;10957;50.968;6.828;2023-03-19T17:41:31;11.40;1.00
21590;DHT22;10957;50.968;6.828;2023-03-19T17:46:54;11.50;1.00
21590;DHT22;10957;50.968;6.828;2023-03-19T17:51:56;11.70;1.00
21590;DHT22;10957;50.968;6.828;2023-03-19T17:56:58;11.80;19.30
21590;DHT22;10957;50.968;6.828;2023-03-19T18:01:59;11.80;54.00
21590;DHT22;10957;50.968;6.828;2023-03-19T18:07:00;11.50;86.40
21590;DHT22;10957;50.968;6.828;2023-03-19T18:12:01;11.50;99.90
21590;DHT22;10957;50.968;6.828;2023-03-19T18:17:03;11.50;99.90
21590;DHT22;10957;50.968;6.828;2023-03-19T18:22:25;11.60;99.90
21590;DHT22;10957;50.968;6.828;2023-03-19T18:27:28;11.30;99.90
21590;DHT22;10957;50.968;6.828;2023-03-19T18:32:30;11.60;99.90
21590;DHT22;10957;50.968;6.828;2023-03-19T18:37:33;11.70;99.90
21590;DHT22;10957;50.968;6.828;2023-03-19T18:42:37;11.40;99.90
21590;DHT22;10957;50.968;6.828;2023-03-19T18:47:39;11.50;99.90
21590;DHT22;10957;50.968;6.828;2023-03-19T18:52:41;11.50;99.90
21590;DHT22;10957;50.968;6.828;2023-03-19T18:57:50;11.30;99.90
21590;DHT22;10957;50.968;6.828;2023-03-19T19:02:53;11.40;99.90
21590;DHT22;10957;50.968;6.828;2023-03-19T19:08:00;11.40;99.90
21590;DHT22;10957;50.968;6.828;2023-03-19T19:13:02;11.30;99.90
21590;DHT22;10957;50.968;6.828;2023-03-19T19:18:32;11.30;99.90
21590;DHT22;10957;50.968;6.828;2023-03-19T19:23:34;11.20;99.90
21590;DHT22;10957;50.968;6.828;2023-03-19T19:28:37;11.30;99.90
21590;DHT22;10957;50.968;6.828;2023-03-19T19:33:39;11.00;99.90
21590;DHT22;10957;50.968;6.828;2023-03-19T19:38:40;11.20;99.90
21590;DHT22;10957;50.968;6.828;2023-03-19T19:43:43;11.10;99.90
21590;DHT22;10957;50.968;6.828;2023-03-19T19:48:44;11.10;99.90
21590;DHT22;10957;50.968;6.828;2023-03-19T19:53:46;11.00;99.90
21590;DHT22;10957;50.968;6.828;2023-03-19T19:58:49;11.10;99.90
21590;DHT22;10957;50.968;6.828;2023-03-19T20:03:52;11.10;99.90
21590;DHT22;10957;50.968;6.828;2023-03-19T20:08:53;11.10;99.90
21590;DHT22;10957;50.968;6.828;2023-03-19T20:13:54;11.10;99.90
21590;DHT22;10957;50.968;6.828;2023-03-19T20:18:56;11.30;99.90
21590;DHT22;10957;50.968;6.828;2023-03-19T20:23:58;11.30;99.90
21590;DHT22;10957;50.968;6.828;2023-03-19T20:28:59;11.20;99.90
21590;DHT22;10957;50.968;6.828;2023-03-19T20:34:01;11.10;99.90
21590;DHT22;10957;50.968;6.828;2023-03-19T20:39:02;11.10;99.90
21590;DHT22;10957;50.968;6.828;2023-03-19T20:44:04;11.20;99.90
21590;DHT22;10957;50.968;6.828;2023-03-19T20:49:14;11.00;99.90
21590;DHT22;10957;50.968;6.828;2023-03-19T20:54:15;11.10;99.90
21590;DHT22;10957;50.968;6.828;2023-03-19T20:59:17;11.10;99.90
21590;DHT22;10957;50.968;6.828;2023-03-19T21:04:18;11.00;99.90
21590;DHT22;10957;50.968;6.828;2023-03-19T21:09:21;11.00;99.90
21590;DHT22;10957;50.968;6.828;2023-03-19T21:14:24;10.90;99.90
21590;DHT22;10957;50.968;6.828;2023-03-19T21:19:27;11.10;99.90
21590;DHT22;10957;50.968;6.828;2023-03-19T21:24:28;10.80;99.90
21590;DHT22;10957;50.968;6.828;2023-03-19T21:29:32;10.90;99.90
21590;DHT22;10957;50.968;6.828;2023-03-19T21:34:37;10.80;99.90
21590;DHT22;10957;50.968;6.828;2023-03-19T21:39:47;10.60;99.90
21590;DHT22;10957;50.968;6.828;2023-03-19T21:45:16;10.70;99.90
21590;DHT22;10957;50.968;6.828;2023-03-19T21:50:37;10.30;90.80
21590;DHT22;10957;50.968;6.828;2023-03-19T21:55:40;10.10;46.30
21590;DHT22;10957;50.968;6.828;2023-03-19T22:00:42;9.90;22.30
21590;DHT22;10957;50.968;6.828;2023-03-19T22:05:44;10.10;9.30
21590;DHT22;10957;50.968;6.828;2023-03-19T22:10:48;10.20;1.00
21590;DHT22;10957;50.968;6.828;2023-03-19T22:15:53;10.00;1.00
21590;DHT22;10957;50.968;6.828;2023-03-19T22:20:55;9.90;1.00
21590;DHT22;10957;50.968;6.828;2023-03-19T22:25:56;9.90;1.00
21590;DHT22;10957;50.968;6.828;2023-03-19T22:30:59;9.80;1.00
21590;DHT22;10957;50.968;6.828;2023-03-19T22:36:00;9.60;1.00
21590;DHT22;10957;50.968;6.828;2023-03-19T22:41:02;9.50;1.00
21590;DHT22;10957;50.968;6.828;2023-03-19T22:46:08;9.80;1.00
21590;DHT22;10957;50.968;6.828;2023-03-19T22:51:14;9.50;1.00
21590;DHT22;10957;50.968;6.828;2023-03-19T22:56:18;9.60;1.00
21590;DHT22;10957;50.968;6.828;2023-03-19T23:06:23;9.20;1.00
21590;DHT22;10957;50.968;6.828;2023-03-19T23:11:27;9.30;1.00
21590;DHT22;10957;50.968;6.828;2023-03-19T23:16:28;9.40;1.00
21590;DHT22;10957;50.968;6.828;2023-03-19T23:21:29;9.20;1.00
21590;DHT22;10957;50.968;6.828;2023-03-19T23:26:31;9.00;1.00
21590;DHT22;10957;50.968;6.828;2023-03-19T23:31:34;9.30;1.00
21590;DHT22;10957;50.968;6.828;2023-03-19T23:36:36;9.30;1.00
21590;DHT22;10957;50.968;6.828;2023-03-19T23:41:43;9.10;1.00
21590;DHT22;10957;50.968;6.828;2023-03-19T23:46:47;9.00;1.00
21590;DHT22;10957;50.968;6.828;2023-03-19T23:51:49;9.30;1.00
21590;DHT22;10957;50.968;6.828;2023-03-19T23:56:50;9.30;1.00
